Time;durP1;ratioP1;P1;durP2;ratioP2;P2;SDS_P1;SDS_P2;PMS_P1;PMS_P2;Temp;Humidity;BMP_temperature;BMP_pressure;BME280_temperature;BME280_humidity;BME280_pressure;Samples;Min_cycle;Max_cycle;Signal;HPM_P1;HPM_P2
2023/03/16 00:01:18;;;;;;;1.97;1.10;;;9.60;39.90;;;;;;5072704;28;20052;-68
2023/03/16 00:03:44;;;;;;;4.97;2.37;;;9.50;40.40;;;;;;5072601;28;20068;-69
2023/03/16 00:06:10;;;;;;;3.30;2.10;;;9.40;41.30;;;;;;5072659;28;20035;-68
2023/03/16 00:08:37;;;;;;;4.97;2.00;;;9.40;41.10;;;;;;5072695;28;20032;-68
2023/03/16 00:11:03;;;;;;;3.00;1.67;;;9.40;41.60;;;;;;5072990;28;20056;-68
2023/03/16 00:13:29;;;;;;;3.20;0.97;;;9.40;41.90;;;;;;5072949;28;20028;-68
2023/03/16 00:16:01;;;;;;;2.33;1.10;;;9.30;42.10;;;;;;5072888;28;20028;-69
2023/03/16 00:18:28;;;;;;;2.55;0.98;;;9.30;42.60;;;;;;5071368;28;20044;-68
2023/03/16 00:20:57;;;;;;;3.17;0.70;;;9.30;42.20;;;;;;5072621;28;20021;-68
2023/03/16 00:23:26;;;;;;;2.50;0.60;;;9.30;41.80;;;;;;5072449;28;20036;-68
2023/03/16 00:25:59;;;;;;;1.23;0.40;;;9.20;41.40;;;;;;5072893;28;20027;-68
2023/03/16 00:28:26;;;;;;;2.73;0.57;;;9.20;41.20;;;;;;5073785;28;20025;-68
2023/03/16 00:30:57;;;;;;;1.90;0.50;;;9.30;41.00;;;;;;5075384;28;20021;-68
2023/03/16 00:33:24;;;;;;;1.27;0.30;;;9.30;40.80;;;;;;5076944;28;20029;-69
2023/03/16 00:35:50;;;;;;;0.60;0.40;;;9.40;40.90;;;;;;5076831;28;20490;-68
2023/03/16 00:38:18;;;;;;;0.87;0.37;;;9.30;40.40;;;;;;5076544;28;20096;-68
2023/03/16 00:40:44;;;;;;;0.80;0.30;;;9.30;40.00;;;;;;5076299;28;20024;-68
2023/03/16 00:43:10;;;;;;;1.27;0.30;;;9.40;40.30;;;;;;5076349;28;20052;-68
2023/03/16 00:45:36;;;;;;;0.93;0.40;;;9.40;40.10;;;;;;5078606;28;20024;-67
2023/03/16 00:48:02;;;;;;;0.37;0.30;;;9.40;40.40;;;;;;5097498;28;20110;-67
2023/03/16 00:50:28;;;;;;;0.47;0.23;;;9.40;39.70;;;;;;5097472;28;20474;-68
2023/03/16 00:52:54;;;;;;;0.63;0.40;;;9.50;39.90;;;;;;5078900;28;20028;-68
2023/03/16 01:09:13;;;;;;;1.40;0.30;;;9.50;39.40;;;;;;4861460;29;20054;-68
2023/03/16 01:21:55;;;;;;;2.20;1.17;;;9.40;39.70;;;;;;4824676;29;20046;-68
2023/03/16 01:24:23;;;;;;;1.17;0.57;;;9.30;39.80;;;;;;4824505;29;20495;-68
2023/03/16 01:26:49;;;;;;;1.83;0.93;;;9.20;38.70;;;;;;4961556;28;20422;-68
2023/03/16 01:29:15;;;;;;;3.60;0.67;;;9.00;39.90;;;;;;5058042;28;20368;-68
2023/03/16 01:31:40;;;;;;;1.00;0.50;;;8.90;40.10;;;;;;5096029;28;20107;-68
2023/03/16 01:34:06;;;;;;;1.63;0.70;;;8.80;41.60;;;;;;5095792;28;20028;-68
2023/03/16 01:36:32;;;;;;;1.23;0.60;;;8.80;42.10;;;;;;5095738;28;20099;-68
2023/03/16 01:38:59;;;;;;;2.57;0.70;;;8.80;41.30;;;;;;5095562;28;20382;-68
2023/03/16 01:41:26;;;;;;;2.00;0.73;;;8.70;41.30;;;;;;5095638;28;20073;-68
2023/03/16 01:43:57;;;;;;;1.50;0.70;;;8.60;41.60;;;;;;5077513;28;20440;-69
2023/03/16 01:46:27;;;;;;;1.93;0.73;;;8.50;42.40;;;;;;5095643;28;20100;-68
2023/03/16 01:48:52;;;;;;;1.20;0.60;;;8.50;43.50;;;;;;5095574;28;20065;-68
2023/03/16 01:51:27;;;;;;;1.20;0.50;;;;;;;;;;5077070;28;20063;-68
2023/03/16 01:54:00;;;;;;;2.23;0.83;;;8.30;42.30;;;;;;5095701;28;20024;-68
2023/03/16 01:56:49;;;;;;;1.53;0.70;;;8.30;43.70;;;;;;5095406;28;20020;-68
2023/03/16 01:59:17;;;;;;;1.40;0.70;;;8.20;43.90;;;;;;5092625;28;20114;-68
2023/03/16 02:01:44;;;;;;;1.40;0.67;;;8.10;43.70;;;;;;5092570;28;20024;-68
2023/03/16 02:04:26;;;;;;;2.37;0.83;;;8.10;43.30;;;;;;5093159;28;20036;-68
2023/03/16 02:06:55;;;;;;;1.70;0.70;;;8.00;43.90;;;;;;5094952;28;20024;-68
2023/03/16 02:09:22;;;;;;;1.70;0.70;;;7.90;44.30;;;;;;5095310;28;20108;-68
2023/03/16 02:11:50;;;;;;;1.80;0.80;;;7.80;44.70;;;;;;5095061;28;20052;-68
2023/03/16 02:14:15;;;;;;;1.87;0.60;;;7.80;44.80;;;;;;5094668;28;20031;-68
2023/03/16 02:16:41;;;;;;;1.90;0.70;;;7.70;45.20;;;;;;5094826;28;20035;-68
2023/03/16 02:19:15;;;;;;;1.30;0.60;;;7.70;45.30;;;;;;5094643;28;20021;-68
2023/03/16 02:21:54;;;;;;;0.97;0.47;;;7.70;46.10;;;;;;5094273;28;20487;-69
2023/03/16 02:24:21;;;;;;;2.20;0.70;;;7.70;46.30;;;;;;5094876;28;20480;-68
2023/03/16 02:26:56;;;;;;;1.43;0.77;;;7.60;46.00;;;;;;5094716;28;20028;-68
2023/03/16 02:30:02;;;;;;;2.63;0.87;;;7.70;46.20;;;;;;5076558;28;20408;-67
2023/03/16 02:32:31;;;;;;;1.33;0.57;;;7.60;46.80;;;;;;5095494;28;20357;-67
2023/03/16 02:35:00;;;;;;;2.80;0.60;;;7.60;46.80;;;;;;5094999;28;20380;-67
2023/03/16 02:37:26;;;;;;;1.10;0.50;;;7.60;47.30;;;;;;5094899;28;20043;-67
2023/03/16 02:39:52;;;;;;;1.43;0.70;;;7.60;46.80;;;;;;5095161;28;20016;-67
2023/03/16 03:03:59;;;;;;;2.13;0.60;;;7.60;47.60;;;;;;5094430;28;20051;-68
2023/03/16 03:09:47;;;;;;;1.53;0.60;;;7.50;47.40;;;;;;5094200;28;20063;-67
2023/03/16 03:12:13;;;;;;;2.37;0.70;;;7.50;47.50;;;;;;5094183;28;20486;-67
2023/03/16 03:14:39;;;;;;;3.33;0.60;;;7.40;48.20;;;;;;5094092;28;20459;-67
2023/03/16 03:17:09;;;;;;;2.63;0.80;;;7.40;48.30;;;;;;5093831;28;20425;-69
2023/03/16 03:19:35;;;;;;;1.37;0.50;;;7.40;48.60;;;;;;5093903;28;20426;-68
2023/03/16 03:22:05;;;;;;;2.17;0.70;;;7.40;48.60;;;;;;5075702;28;20428;-68
2023/03/16 03:24:32;;;;;;;1.60;0.60;;;7.30;49.00;;;;;;5093638;28;20512;-68
2023/03/16 03:27:04;;;;;;;8.13;0.70;;;7.30;49.30;;;;;;5093456;28;20052;-68
2023/03/16 03:29:33;;;;;;;1.98;0.80;;;7.30;49.70;;;;;;5075713;28;20371;-68
2023/03/16 03:32:03;;;;;;;1.50;0.80;;;7.30;50.00;;;;;;5093659;28;20024;-68
2023/03/16 03:34:30;;;;;;;1.43;0.60;;;7.30;50.00;;;;;;5093116;28;20107;-68
2023/03/16 03:36:56;;;;;;;1.30;0.80;;;7.20;49.90;;;;;;5093376;28;20575;-68
2023/03/16 03:39:22;;;;;;;4.93;0.80;;;7.20;50.50;;;;;;5093273;28;20024;-69
2023/03/16 03:41:48;;;;;;;1.27;0.43;;;7.20;51.40;;;;;;5093305;28;20031;-68
2023/03/16 03:44:14;;;;;;;2.10;1.00;;;7.20;51.40;;;;;;5093242;28;20032;-68
2023/03/16 03:46:40;;;;;;;3.10;1.10;;;7.10;51.60;;;;;;5093387;28;20020;-68
2023/03/16 03:49:06;;;;;;;1.90;0.73;;;7.10;51.30;;;;;;5082213;28;20059;-68
2023/03/16 03:51:33;;;;;;;3.00;0.80;;;7.10;51.50;;;;;;5072968;28;20051;-68
2023/03/16 03:53:59;;;;;;;1.43;0.63;;;7.00;51.20;;;;;;5072781;28;20476;-68
2023/03/16 03:56:25;;;;;;;2.37;0.80;;;7.00;50.90;;;;;;5073010;28;20031;-68
2023/03/16 03:58:51;;;;;;;3.33;0.90;;;7.00;51.50;;;;;;5072939;28;20082;-68
2023/03/16 04:01:17;;;;;;;2.23;0.70;;;7.00;51.20;;;;;;5072807;28;20029;-68
2023/03/16 04:03:43;;;;;;;1.37;0.70;;;6.90;51.80;;;;;;5071799;28;20032;-68
2023/03/16 04:06:09;;;;;;;1.83;0.77;;;6.90;52.30;;;;;;5072956;28;20050;-68
2023/03/16 04:08:36;;;;;;;4.10;1.00;;;6.90;52.50;;;;;;5072896;28;20380;-68
2023/03/16 04:11:02;;;;;;;3.83;1.20;;;6.90;52.50;;;;;;5072770;28;20515;-68
2023/03/16 04:13:27;;;;;;;2.13;0.93;;;6.90;52.30;;;;;;5072624;28;20055;-68
2023/03/16 04:15:57;;;;;;;2.30;0.80;;;6.80;52.10;;;;;;5072473;28;20024;-68
2023/03/16 04:18:23;;;;;;;2.70;0.90;;;6.80;52.10;;;;;;5071073;28;20082;-68
2023/03/16 04:20:52;;;;;;;3.50;1.57;;;6.80;52.70;;;;;;5073412;28;20033;-68
2023/03/16 04:23:18;;;;;;;2.50;0.90;;;6.70;53.40;;;;;;5073232;28;20037;-68
2023/03/16 04:25:45;;;;;;;1.93;0.90;;;6.70;53.30;;;;;;5073095;28;20032;-68
2023/03/16 04:28:11;;;;;;;1.90;0.70;;;6.70;53.80;;;;;;5073076;28;20393;-68
2023/03/16 04:34:54;;;;;;;2.27;1.00;;;6.70;53.80;;;;;;5073317;28;20074;-67
2023/03/16 04:41:01;;;;;;;12.73;1.23;;;6.60;53.90;;;;;;5031854;28;20113;-67
2023/03/16 04:44:02;;;;;;;17.47;1.37;;;6.60;53.80;;;;;;5070160;28;20389;-68
2023/03/16 04:50:12;;;;;;;3.10;1.00;;;6.50;53.90;;;;;;4987903;28;20053;-67
2023/03/16 04:53:17;;;;;;;6.53;1.00;;;6.50;54.00;;;;;;5009876;28;20116;-68
2023/03/16 04:59:58;;;;;;;2.53;1.40;;;6.50;54.60;;;;;;4914122;29;20517;-67
2023/03/16 05:02:24;;;;;;;2.10;0.80;;;6.50;54.70;;;;;;4884331;29;20493;-67
2023/03/16 05:04:50;;;;;;;3.77;0.90;;;6.50;54.70;;;;;;4932642;29;20408;-67
2023/03/16 05:07:16;;;;;;;2.93;1.10;;;6.40;54.70;;;;;;4990912;28;20116;-67
2023/03/16 05:09:42;;;;;;;10.60;1.70;;;6.40;54.80;;;;;;5051909;28;20616;-70
2023/03/16 05:12:09;;;;;;;12.80;1.60;;;6.40;54.70;;;;;;5051702;28;20017;-70
2023/03/16 05:14:35;;;;;;;7.90;1.73;;;6.30;54.60;;;;;;5053582;28;20044;-70
2023/03/16 05:17:05;;;;;;;8.13;2.40;;;6.20;55.00;;;;;;5055931;28;20087;-67
2023/03/16 05:19:31;;;;;;;8.00;1.70;;;6.20;55.40;;;;;;5055612;28;20021;-70
2023/03/16 05:21:57;;;;;;;7.80;1.40;;;6.20;55.50;;;;;;5055767;28;20103;-69
2023/03/16 05:24:23;;;;;;;7.37;1.87;;;6.20;55.40;;;;;;5055273;28;20029;-70
2023/03/16 05:26:48;;;;;;;3.27;1.07;;;6.20;55.60;;;;;;5055476;28;20070;-69
2023/03/16 05:29:14;;;;;;;9.10;1.50;;;6.20;56.30;;;;;;5055475;28;20075;-67
2023/03/16 05:31:40;;;;;;;4.87;1.07;;;6.10;56.20;;;;;;5055601;28;20032;-67
2023/03/16 05:34:06;;;;;;;1.97;0.70;;;6.10;56.30;;;;;;5055401;28;20093;-70
2023/03/16 05:36:31;;;;;;;2.73;0.77;;;6.10;56.50;;;;;;5055515;28;20023;-69
2023/03/16 05:38:58;;;;;;;3.23;1.07;;;6.10;56.50;;;;;;5055289;28;20040;-70
2023/03/16 05:41:24;;;;;;;2.90;0.90;;;6.10;56.60;;;;;;5037238;28;20508;-70
2023/03/16 05:43:49;;;;;;;5.00;1.27;;;6.10;56.60;;;;;;5055069;28;20037;-70
2023/03/16 05:46:15;;;;;;;5.27;1.17;;;6.10;56.90;;;;;;5055321;28;20036;-67
2023/03/16 05:48:41;;;;;;;6.77;1.30;;;6.00;56.90;;;;;;5054862;28;20107;-67
2023/03/16 05:51:06;;;;;;;5.53;1.70;;;6.00;56.90;;;;;;5055039;28;20031;-67
2023/03/16 05:53:32;;;;;;;10.20;1.80;;;6.00;56.80;;;;;;5055143;28;20037;-67
2023/03/16 05:55:58;;;;;;;17.43;2.20;;;6.00;56.90;;;;;;5054926;28;20025;-67
2023/03/16 05:58:24;;;;;;;11.83;1.70;;;6.00;57.00;;;;;;5054356;28;20032;-67
2023/03/16 06:00:50;;;;;;;10.03;1.87;;;6.00;56.80;;;;;;5054894;28;20381;-67
2023/03/16 06:03:16;;;;;;;5.53;1.40;;;6.10;57.30;;;;;;5054585;28;20037;-67
2023/03/16 06:05:42;;;;;;;8.40;1.40;;;6.10;57.60;;;;;;5037096;28;20032;-67
2023/03/16 06:08:08;;;;;;;7.53;1.70;;;6.10;57.30;;;;;;5055537;28;20111;-67
2023/03/16 06:10:35;;;;;;;6.93;1.90;;;6.10;56.90;;;;;;5055401;28;20159;-67
2023/03/16 06:13:01;;;;;;;3.80;1.90;;;6.10;56.50;;;;;;5055346;28;20052;-67
2023/03/16 06:15:29;;;;;;;13.80;2.80;;;6.20;56.20;;;;;;5037375;28;20016;-67
2023/03/16 06:17:55;;;;;;;6.23;2.97;;;6.20;56.30;;;;;;5054543;28;20024;-70
2023/03/16 06:27:48;;;;;;;10.13;2.90;;;6.30;56.60;;;;;;4933933;29;20036;-70
2023/03/16 06:47:12;;;;;;;8.63;2.53;;;6.60;57.20;;;;;;4874760;29;20033;-67
2023/03/16 06:49:38;;;;;;;7.43;2.80;;;6.60;57.00;;;;;;4888232;29;20061;-68
2023/03/16 06:52:04;;;;;;;4.90;2.43;;;6.70;57.10;;;;;;5038159;28;20397;-67
2023/03/16 06:54:34;;;;;;;10.17;2.37;;;6.70;57.30;;;;;;5036139;28;20022;-67
2023/03/16 06:57:00;;;;;;;10.27;3.60;;;6.80;57.10;;;;;;5054099;28;20445;-68
2023/03/16 06:59:26;;;;;;;10.60;2.40;;;6.90;57.40;;;;;;5053431;28;20032;-67
2023/03/16 07:01:52;;;;;;;9.80;2.20;;;6.90;57.30;;;;;;5053507;28;20112;-68
2023/03/16 07:04:17;;;;;;;4.23;1.90;;;7.00;57.50;;;;;;5053499;28;20043;-67
2023/03/16 07:06:43;;;;;;;7.27;2.43;;;7.10;57.90;;;;;;5053208;28;20064;-68
2023/03/16 07:09:11;;;;;;;5.83;2.03;;;7.10;57.00;;;;;;5053460;28;20431;-69
2023/03/16 07:11:37;;;;;;;6.33;2.93;;;7.20;56.90;;;;;;5053204;28;20692;-68
2023/03/16 07:14:03;;;;;;;3.30;1.33;;;;;;;;;;5053082;28;20530;-67
2023/03/16 07:16:30;;;;;;;4.47;1.90;;;7.30;56.30;;;;;;5053228;28;20029;-67
2023/03/16 07:18:56;;;;;;;4.50;1.90;;;7.40;56.70;;;;;;5052923;28;20033;-68
2023/03/16 07:21:22;;;;;;;5.93;1.73;;;7.50;56.30;;;;;;5053647;28;20032;-68
2023/03/16 07:23:48;;;;;;;6.03;1.50;;;7.60;56.00;;;;;;5052875;28;20032;-68
2023/03/16 07:26:14;;;;;;;5.17;2.13;;;7.70;56.00;;;;;;5053184;28;20032;-68
2023/03/16 07:28:40;;;;;;;2.77;1.43;;;7.70;55.40;;;;;;5053122;28;20033;-69
2023/03/16 07:31:06;;;;;;;4.27;1.40;;;7.80;54.80;;;;;;5053310;28;20103;-69
2023/03/16 07:33:33;;;;;;;6.03;1.50;;;7.90;54.20;;;;;;5053218;28;20074;-68
2023/03/16 07:36:02;;;;;;;11.27;1.50;;;8.00;53.30;;;;;;5053239;28;20492;-68
2023/03/16 07:38:29;;;;;;;5.37;1.50;;;8.10;52.80;;;;;;5052058;28;20106;-69
2023/03/16 07:40:54;;;;;;;4.50;1.90;;;8.10;52.50;;;;;;5052513;28;20025;-68
2023/03/16 07:43:20;;;;;;;5.47;1.97;;;8.30;51.90;;;;;;5052779;28;20033;-69
2023/03/16 07:45:50;;;;;;;4.13;1.90;;;8.30;51.30;;;;;;5052534;28;20021;-68
2023/03/16 07:48:17;;;;;;;4.63;1.97;;;8.40;50.50;;;;;;5049301;28;21642;-68
2023/03/16 07:50:43;;;;;;;5.00;2.00;;;8.50;49.90;;;;;;5032384;28;20032;-69
2023/03/16 07:53:09;;;;;;;7.27;2.27;;;8.50;50.00;;;;;;5032732;28;20022;-68
2023/03/16 07:55:37;;;;;;;6.00;2.10;;;8.60;50.10;;;;;;5032938;28;20443;-68
2023/03/16 07:58:04;;;;;;;6.00;2.33;;;8.70;49.70;;;;;;5033463;28;20382;-70
2023/03/16 08:00:31;;;;;;;8.17;1.80;;;8.70;49.60;;;;;;5032979;28;20436;-68
2023/03/16 08:02:57;;;;;;;7.93;2.13;;;8.80;49.90;;;;;;5033038;28;20060;-68
2023/03/16 08:05:27;;;;;;;5.03;1.60;;;8.90;50.10;;;;;;5032999;28;20081;-69
2023/03/16 08:19:14;;;;;;;;;;;;;;;;;;;;;
2023/03/16 08:32:41;;;;;;;2.77;1.10;;;9.70;49.30;;;;;;4858483;29;20117;-68
2023/03/16 08:35:11;;;;;;;2.63;1.10;;;9.80;48.40;;;;;;4892882;29;20126;-69
2023/03/16 08:37:37;;;;;;;3.40;0.97;;;9.80;48.30;;;;;;4975810;28;20146;-70
2023/03/16 08:40:09;;;;;;;2.57;1.10;;;9.90;48.20;;;;;;5032655;28;20112;-67
2023/03/16 08:42:37;;;;;;;4.93;1.13;;;10.00;48.40;;;;;;5031194;28;20492;-67
2023/03/16 08:45:08;;;;;;;3.10;1.00;;;10.00;47.80;;;;;;5029809;28;20033;-67
2023/03/16 08:47:35;;;;;;;2.30;0.70;;;10.10;47.10;;;;;;5029772;28;20030;-69
2023/03/16 08:50:04;;;;;;;2.57;0.90;;;10.10;46.90;;;;;;5049267;28;20408;-68
2023/03/16 08:52:30;;;;;;;4.47;1.03;;;10.10;46.90;;;;;;5075938;28;20017;-68
2023/03/16 08:54:56;;;;;;;1.93;0.70;;;10.20;47.20;;;;;;5076513;28;20382;-68
2023/03/16 08:57:23;;;;;;;2.10;0.70;;;10.30;46.60;;;;;;5076012;28;20472;-68
2023/03/16 08:59:49;;;;;;;2.07;1.07;;;10.30;46.20;;;;;;5075787;28;20024;-68
2023/03/16 09:02:15;;;;;;;3.13;0.90;;;10.30;46.60;;;;;;5058113;28;20031;-68
2023/03/16 09:04:41;;;;;;;2.87;1.03;;;10.40;45.90;;;;;;5076002;28;20020;-68
2023/03/16 09:07:07;;;;;;;2.30;0.90;;;10.50;45.90;;;;;;5075835;28;20025;-68
2023/03/16 09:09:34;;;;;;;3.83;0.90;;;10.60;46.10;;;;;;5075921;28;20032;-68
2023/03/16 09:12:00;;;;;;;5.30;1.47;;;10.60;47.00;;;;;;5075958;28;20391;-68
2023/03/16 09:14:26;;;;;;;1.90;0.70;;;10.70;46.50;;;;;;5075592;28;20032;-68
2023/03/16 09:16:52;;;;;;;2.07;0.90;;;10.70;45.00;;;;;;5075850;28;20020;-67
2023/03/16 09:19:18;;;;;;;2.93;0.73;;;10.80;44.00;;;;;;5075858;28;20052;-68
2023/03/16 09:21:44;;;;;;;3.17;0.80;;;10.80;44.00;;;;;;5075321;28;20029;-68
2023/03/16 09:24:10;;;;;;;1.40;0.70;;;10.80;44.00;;;;;;5075576;28;20039;-68
2023/03/16 09:26:36;;;;;;;3.30;1.03;;;10.90;44.70;;;;;;5075671;28;20020;-68
2023/03/16 09:29:05;;;;;;;1.57;0.60;;;11.00;45.10;;;;;;5075683;28;20081;-68
2023/03/16 09:31:32;;;;;;;1.40;0.70;;;11.10;44.30;;;;;;5057556;28;20020;-68
2023/03/16 09:33:58;;;;;;;3.47;0.77;;;11.10;45.20;;;;;;5057630;28;20494;-68
2023/03/16 09:36:25;;;;;;;1.83;0.60;;;11.20;45.20;;;;;;5075100;28;20047;-68
2023/03/16 09:38:52;;;;;;;1.73;0.60;;;11.30;45.20;;;;;;5075552;28;20032;-67
2023/03/16 09:41:40;;;;;;;3.90;0.83;;;11.40;45.10;;;;;;5076127;28;20086;-68
2023/03/16 09:44:33;;;;;;;2.63;0.93;;;11.40;44.50;;;;;;5075462;28;20381;-68
2023/03/16 09:47:02;;;;;;;2.83;0.75;;;11.60;44.30;;;;;;5074392;28;20028;-68
2023/03/16 09:49:35;;;;;;;1.77;0.70;;;11.60;43.60;;;;;;5075044;28;20049;-68
2023/03/16 09:53:03;;;;;;;2.90;0.68;;;11.70;43.60;;;;;;5074581;28;20064;-68
2023/03/16 09:59:18;;;;;;;3.15;0.73;;;11.90;43.70;;;;;;5075476;28;20039;-68
2023/03/16 10:19:00;;;;;;;2.30;0.73;;;12.30;41.30;;;;;;4978050;28;20061;-68
2023/03/16 10:21:26;;;;;;;2.22;0.60;;;12.40;41.80;;;;;;5074493;28;20032;-68
2023/03/16 10:23:54;;;;;;;3.10;0.75;;;12.50;42.50;;;;;;5074612;28;20044;-68
2023/03/16 10:26:30;;;;;;;1.35;0.75;;;12.60;42.30;;;;;;5074755;28;20442;-68
2023/03/16 10:28:56;;;;;;;1.88;0.60;;;12.60;39.80;;;;;;5074375;28;20396;-68
2023/03/16 10:31:23;;;;;;;1.73;0.80;;;12.70;40.50;;;;;;5074600;28;20029;-68
2023/03/16 10:33:54;;;;;;;1.60;0.70;;;12.70;40.80;;;;;;5074473;28;20032;-68
2023/03/16 10:36:35;;;;;;;2.63;0.60;;;12.80;41.10;;;;;;5056439;28;20384;-68
2023/03/16 10:39:03;;;;;;;2.05;0.70;;;12.90;41.50;;;;;;5074585;28;21024;-70
2023/03/16 10:41:36;;;;;;;1.65;0.75;;;;;;;;;;5074027;28;20023;-68
2023/03/16 10:44:10;;;;;;;1.55;0.82;;;12.90;39.40;;;;;;5073973;28;20040;-68
2023/03/16 10:46:41;;;;;;;3.75;0.85;;;13.00;39.50;;;;;;5074156;28;20146;-68
2023/03/16 10:49:27;;;;;;;3.25;0.90;;;13.10;40.00;;;;;;5073942;28;20048;-68
2023/03/16 10:51:58;;;;;;;1.83;0.90;;;13.10;40.50;;;;;;5073850;28;20051;-68
2023/03/16 10:54:30;;;;;;;1.65;0.82;;;13.30;39.40;;;;;;5074087;28;20515;-68
2023/03/16 10:56:57;;;;;;;1.23;0.65;;;13.30;39.60;;;;;;5074210;28;20051;-69
2023/03/16 10:59:34;;;;;;;1.50;1.00;;;13.40;39.40;;;;;;5073585;28;20040;-68
2023/03/16 11:02:25;;;;;;;1.88;0.90;;;13.50;39.70;;;;;;5074043;28;20464;-69
2023/03/16 11:04:51;;;;;;;2.28;1.10;;;13.60;40.60;;;;;;5073728;28;20078;-68
2023/03/16 11:07:20;;;;;;;2.58;0.80;;;13.70;40.00;;;;;;5073698;28;20537;-68
2023/03/16 11:09:50;;;;;;;2.38;1.08;;;13.70;38.30;;;;;;5073771;28;20032;-68
2023/03/16 11:12:29;;;;;;;1.40;0.85;;;13.80;39.40;;;;;;5073412;28;20119;-68
2023/03/16 11:15:02;;;;;;;2.55;0.90;;;13.80;39.30;;;;;;5073822;28;20059;-69
2023/03/16 11:17:36;;;;;;;2.65;0.88;;;13.90;38.40;;;;;;5073443;28;20116;-68
2023/03/16 11:20:11;;;;;;;1.02;0.60;;;13.90;37.20;;;;;;5073330;28;20484;-69
2023/03/16 11:22:38;;;;;;;2.00;0.85;;;14.00;37.60;;;;;;5071018;28;20021;-68
2023/03/16 11:25:16;;;;;;;4.18;1.00;;;14.00;38.80;;;;;;5072980;28;20111;-69
2023/03/16 11:27:44;;;;;;;1.73;1.00;;;14.10;37.10;;;;;;5086779;28;20028;-67
2023/03/16 11:30:29;;;;;;;2.15;0.82;;;14.10;37.90;;;;;;5075913;28;20021;-67
2023/03/16 11:32:59;;;;;;;2.25;0.82;;;14.20;37.90;;;;;;5074301;28;20020;-67
2023/03/16 11:35:38;;;;;;;2.83;0.90;;;14.20;38.40;;;;;;5073003;28;20059;-67
2023/03/16 11:38:04;;;;;;;1.60;0.80;;;14.30;38.40;;;;;;5073419;28;20016;-68
2023/03/16 11:41:10;;;;;;;1.80;0.80;;;14.30;38.60;;;;;;5073234;28;20027;-67
2023/03/16 11:44:58;;;;;;;2.50;0.93;;;14.40;38.40;;;;;;5049378;28;20045;-67
2023/03/16 12:05:08;;;;;;;3.25;1.10;;;15.00;37.10;;;;;;4952248;28;20126;-68
2023/03/16 12:08:03;;;;;;;3.65;0.80;;;15.10;37.10;;;;;;4950138;28;20392;-68
2023/03/16 12:10:40;;;;;;;2.55;0.90;;;15.10;37.30;;;;;;5033179;28;20037;-68
2023/03/16 12:13:09;;;;;;;3.17;0.80;;;15.10;38.00;;;;;;5052330;28;20167;-71
2023/03/16 12:15:50;;;;;;;2.35;0.93;;;15.20;36.80;;;;;;5052615;28;20025;-71
2023/03/16 12:18:52;;;;;;;6.35;1.00;;;15.20;37.10;;;;;;5052709;28;20032;-71
2023/03/16 12:21:24;;;;;;;2.25;1.00;;;15.20;36.60;;;;;;5050302;28;20126;-71
2023/03/16 12:24:01;;;;;;;2.67;0.90;;;15.20;36.70;;;;;;5049450;28;20045;-71
2023/03/16 12:26:31;;;;;;;2.15;1.00;;;15.10;36.20;;;;;;5055484;28;20421;-71
2023/03/16 12:28:59;;;;;;;3.20;1.00;;;15.10;37.20;;;;;;5056662;28;20044;-71
2023/03/16 12:31:40;;;;;;;1.63;0.93;;;15.20;37.70;;;;;;5056572;28;20493;-71
2023/03/16 12:34:24;;;;;;;2.33;0.88;;;15.20;37.90;;;;;;5056616;28;20036;-71
2023/03/16 12:36:56;;;;;;;3.28;0.90;;;15.30;36.80;;;;;;5040032;28;20500;-71
2023/03/16 12:39:30;;;;;;;2.53;0.70;;;15.30;38.30;;;;;;5056714;28;20555;-71
2023/03/16 12:42:08;;;;;;;1.42;0.98;;;15.40;36.80;;;;;;5056579;28;20033;-71
2023/03/16 12:45:16;;;;;;;3.75;1.10;;;15.40;36.90;;;;;;5038483;28;20524;-71
2023/03/16 12:48:03;;;;;;;3.10;0.82;;;15.40;37.10;;;;;;5023034;28;20039;-71
2023/03/16 12:50:29;;;;;;;5.75;0.98;;;15.50;37.90;;;;;;5056123;28;20038;-71
2023/03/16 12:52:55;;;;;;;1.88;1.00;;;15.50;36.10;;;;;;5055534;28;20029;-71
2023/03/16 12:55:33;;;;;;;2.47;1.10;;;15.50;36.70;;;;;;5053349;28;20035;-70
2023/03/16 12:58:06;;;;;;;2.67;1.10;;;15.50;37.30;;;;;;5053443;28;20107;-71
2023/03/16 13:00:37;;;;;;;1.90;0.90;;;15.60;36.50;;;;;;5055019;28;20104;-71
2023/03/16 13:03:05;;;;;;;2.80;1.00;;;15.70;36.80;;;;;;5056045;28;20095;-71
2023/03/16 13:05:33;;;;;;;2.30;1.05;;;15.70;37.50;;;;;;5055841;28;20025;-71
2023/03/16 13:08:13;;;;;;;2.25;0.90;;;15.80;37.10;;;;;;5056217;28;20564;-71
2023/03/16 13:10:39;;;;;;;2.97;1.10;;;15.90;37.70;;;;;;5056240;28;20078;-71
2023/03/16 13:13:16;;;;;;;4.60;0.90;;;16.00;43.60;;;;;;5056368;28;20032;-71
2023/03/16 13:15:46;;;;;;;3.08;1.10;;;16.10;39.80;;;;;;5056236;28;20029;-71
2023/03/16 13:18:17;;;;;;;1.90;1.02;;;16.10;36.70;;;;;;5056690;28;20079;-72
2023/03/16 13:20:52;;;;;;;4.27;1.03;;;16.00;36.00;;;;;;5056023;28;20414;-71
2023/03/16 13:24:14;;;;;;;2.30;1.17;;;16.00;36.30;;;;;;5054473;28;20041;-72
2023/03/16 13:27:27;;;;;;;2.40;1.17;;;16.00;37.50;;;;;;4952624;29;20053;-72
2023/03/16 13:37:58;;;;;;;3.10;1.58;;;15.90;36.50;;;;;;4845757;29;20030;-71
2023/03/16 13:48:07;;;;;;;3.72;1.35;;;15.90;46.20;;;;;;4897353;29;20040;-71
2023/03/16 13:50:14;;;;;;;2.08;0.90;;;16.00;43.90;;;;;;4890754;29;20063;-71
2023/03/16 13:52:42;;;;;;;2.67;1.23;;;16.10;44.50;;;;;;4879914;29;20434;-71
2023/03/16 13:55:18;;;;;;;2.13;1.10;;;16.10;44.00;;;;;;4981036;28;20042;-71
2023/03/16 13:57:45;;;;;;;4.22;1.48;;;16.10;43.10;;;;;;5012078;28;20048;-71
2023/03/16 14:00:23;;;;;;;2.97;1.50;;;16.10;43.80;;;;;;5054854;28;20029;-71
2023/03/16 14:02:55;;;;;;;1.95;1.13;;;16.10;42.20;;;;;;5054194;28;20037;-71
2023/03/16 14:05:33;;;;;;;3.78;1.13;;;16.20;41.60;;;;;;5054207;28;20028;-71
2023/03/16 14:07:59;;;;;;;2.90;1.35;;;16.20;41.40;;;;;;5055045;28;20025;-71
2023/03/16 14:10:33;;;;;;;1.98;0.93;;;16.20;42.10;;;;;;5054338;28;20016;-71
2023/03/16 14:13:22;;;;;;;3.15;1.80;;;16.20;43.50;;;;;;5054705;28;20099;-71
2023/03/16 14:15:49;;;;;;;7.30;1.70;;;16.20;44.10;;;;;;5054943;28;20437;-71
2023/03/16 14:18:21;;;;;;;2.65;1.13;;;16.30;45.00;;;;;;5054714;28;20163;-71
2023/03/16 14:20:54;;;;;;;2.50;0.80;;;16.30;44.50;;;;;;5054688;28;20500;-71
2023/03/16 14:23:23;;;;;;;2.58;1.10;;;16.30;46.10;;;;;;5054503;28;20036;-71
2023/03/16 14:25:50;;;;;;;2.65;1.10;;;16.20;50.90;;;;;;5054597;28;20028;-71
2023/03/16 14:28:18;;;;;;;3.88;1.55;;;16.10;44.20;;;;;;5054414;28;20463;-70
2023/03/16 14:31:01;;;;;;;4.22;1.30;;;16.10;45.80;;;;;;5054483;28;20473;-70
2023/03/16 14:33:33;;;;;;;2.67;1.20;;;16.10;46.70;;;;;;5054193;28;20477;-73
2023/03/16 14:36:08;;;;;;;2.95;1.40;;;16.10;45.50;;;;;;5054386;28;20021;-71
2023/03/16 14:38:36;;;;;;;4.28;1.13;;;16.10;46.90;;;;;;5053800;28;20102;-70
2023/03/16 14:41:26;;;;;;;1.98;1.25;;;16.00;44.50;;;;;;5053674;28;20499;-73
2023/03/16 14:43:59;;;;;;;2.83;1.48;;;15.90;45.60;;;;;;5036328;28;20493;-75
2023/03/16 14:46:41;;;;;;;3.33;1.20;;;15.80;45.20;;;;;;5052735;28;20021;-71
2023/03/16 14:49:18;;;;;;;2.08;1.30;;;15.70;46.80;;;;;;5051625;28;20068;-74
2023/03/16 14:51:46;;;;;;;2.97;1.45;;;15.60;46.60;;;;;;5051355;28;20525;-71
2023/03/16 14:54:16;;;;;;;3.38;1.52;;;15.60;47.00;;;;;;5051629;28;20496;-75
2023/03/16 14:56:53;;;;;;;3.00;1.38;;;15.60;45.60;;;;;;5054167;28;20325;-71
2023/03/16 14:59:20;;;;;;;7.22;1.38;;;15.60;44.80;;;;;;5054801;28;20446;-71
2023/03/16 15:01:48;;;;;;;3.00;1.50;;;15.50;45.90;;;;;;5054443;28;20039;-72
2023/03/16 15:04:18;;;;;;;1.50;1.10;;;15.50;45.30;;;;;;5054263;28;20043;-71
2023/03/16 15:17:35;;;;;;;2.42;1.25;;;15.40;46.00;;;;;;4992322;28;20112;-72
2023/03/16 15:23:19;;;;;;;4.00;1.52;;;15.40;46.00;;;;;;4975797;28;20577;-73
2023/03/16 15:25:50;;;;;;;3.17;1.42;;;15.20;37.70;;;;;;5053468;28;20197;-74
2023/03/16 15:28:53;;;;;;;2.63;1.10;;;15.20;38.30;;;;;;5053221;28;20017;-74
2023/03/16 15:31:22;;;;;;;4.30;1.63;;;15.10;37.90;;;;;;5053370;28;20029;-74
2023/03/16 15:33:48;;;;;;;1.90;1.08;;;15.10;37.80;;;;;;5052400;28;20431;-71
2023/03/16 15:36:17;;;;;;;3.58;1.20;;;15.10;37.40;;;;;;5050379;28;20079;-71
2023/03/16 15:38:47;;;;;;;4.47;1.30;;;15.00;37.70;;;;;;5050263;28;20103;-71
2023/03/16 15:41:14;;;;;;;3.72;1.58;;;15.00;38.50;;;;;;5052820;28;20427;-71
2023/03/16 15:43:40;;;;;;;2.90;1.40;;;15.00;38.20;;;;;;5033950;28;20428;-71
2023/03/16 15:46:06;;;;;;;4.22;2.13;;;14.90;39.90;;;;;;5051383;28;20028;-71
2023/03/16 15:48:32;;;;;;;3.80;1.55;;;14.90;39.50;;;;;;5053042;28;20369;-71
2023/03/16 15:51:27;;;;;;;3.25;1.30;;;14.90;39.00;;;;;;5052975;28;20389;-74
2023/03/16 15:54:05;;;;;;;2.50;1.40;;;14.80;39.00;;;;;;5052883;28;20032;-73
2023/03/16 15:56:34;;;;;;;2.92;1.42;;;14.70;39.10;;;;;;5052914;28;20469;-73
2023/03/16 15:59:04;;;;;;;3.20;1.63;;;14.70;39.60;;;;;;5053108;28;20029;-73
2023/03/16 16:01:38;;;;;;;3.10;1.50;;;14.70;39.80;;;;;;5035012;28;20021;-71
2023/03/16 16:04:11;;;;;;;3.20;1.38;;;14.70;39.10;;;;;;5052862;28;20041;-73
2023/03/16 16:06:36;;;;;;;3.45;1.30;;;14.60;39.10;;;;;;5052810;28;20533;-71
2023/03/16 16:09:02;;;;;;;7.32;1.30;;;14.50;39.50;;;;;;5052699;28;20104;-71
2023/03/16 16:11:28;;;;;;;4.15;1.50;;;14.50;40.10;;;;;;5052738;28;20021;-73